createdAt,value
2023-03-28T00:00:05.547Z,2.80
2023-03-28T00:00:18.243Z,3.30
2023-03-28T00:00:29.893Z,3.30
2023-03-28T00:00:42.131Z,2.60
2023-03-28T00:00:55.382Z,2.60
2023-03-28T00:01:06.125Z,2.50
2023-03-28T00:01:16.827Z,2.50
2023-03-28T00:01:27.562Z,2.60
2023-03-28T00:01:38.312Z,2.40
2023-03-28T00:01:49.046Z,2.30
2023-03-28T00:02:02.077Z,2.30
2023-03-28T00:02:12.893Z,2.60
2023-03-28T00:02:24.674Z,2.70
2023-03-28T00:02:35.452Z,2.50
2023-03-28T00:02:47.910Z,2.80
2023-03-28T00:03:00.360Z,3.00
2023-03-28T00:03:12.761Z,3.30
2023-03-28T00:03:24.542Z,2.90
2023-03-28T00:03:36.946Z,2.70
2023-03-28T00:03:48.698Z,2.90
2023-03-28T00:03:59.494Z,2.90
2023-03-28T00:04:10.233Z,3.50
2023-03-28T00:04:21.979Z,3.20
2023-03-28T00:04:32.720Z,3.60
2023-03-28T00:04:44.385Z,2.70
2023-03-28T00:04:56.134Z,2.30
2023-03-28T00:05:08.145Z,2.70
2023-03-28T00:05:20.056Z,3.30
2023-03-28T00:05:32.452Z,3.80
2023-03-28T00:05:45.114Z,3.70
2023-03-28T00:05:55.938Z,3.40
2023-03-28T00:06:08.569Z,3.10
2023-03-28T00:06:20.274Z,2.50
2023-03-28T00:06:32.807Z,2.70
2023-03-28T00:06:44.522Z,3.20
2023-03-28T00:06:55.330Z,3.30
2023-03-28T00:07:07.125Z,3.00
2023-03-28T00:07:19.445Z,2.70
2023-03-28T00:07:30.265Z,2.40
2023-03-28T00:07:41.971Z,2.20
2023-03-28T00:07:52.715Z,2.20
2023-03-28T00:08:03.455Z,2.60
2023-03-28T00:08:14.198Z,2.70
2023-03-28T00:08:24.943Z,3.00
2023-03-28T00:08:36.645Z,2.70
2023-03-28T00:08:47.561Z,2.80
2023-03-28T00:08:59.611Z,3.00
2023-03-28T00:09:11.282Z,3.20
2023-03-28T00:09:23.509Z,3.10
2023-03-28T00:09:35.713Z,3.10
2023-03-28T00:09:48.115Z,3.40
2023-03-28T00:10:00.567Z,3.30
2023-03-28T00:10:12.290Z,2.50
2023-03-28T00:10:23.035Z,2.50
2023-03-28T00:10:33.732Z,2.60
2023-03-28T00:10:44.448Z,3.40
2023-03-28T00:10:56.887Z,4.00
2023-03-28T00:11:08.596Z,3.70
2023-03-28T00:11:22.600Z,2.60
2023-03-28T00:11:35.540Z,2.70
2023-03-28T00:11:47.257Z,3.50
2023-03-28T00:11:57.937Z,3.00
2023-03-28T00:12:09.701Z,2.90
2023-03-28T00:12:21.364Z,2.50
2023-03-28T00:12:32.066Z,2.30
2023-03-28T00:12:43.789Z,2.20
2023-03-28T00:12:56.130Z,2.50
2023-03-28T00:13:08.541Z,2.60
2023-03-28T00:13:19.266Z,2.40
2023-03-28T00:13:32.481Z,2.40
2023-03-28T00:13:43.214Z,2.80
2023-03-28T00:13:54.000Z,3.30
2023-03-28T00:14:04.784Z,3.50
2023-03-28T00:14:15.494Z,2.70
2023-03-28T00:14:26.200Z,2.60
2023-03-28T00:14:38.385Z,2.80
2023-03-28T00:14:49.125Z,3.00
2023-03-28T00:15:01.592Z,3.10
2023-03-28T00:15:13.304Z,2.60
2023-03-28T00:15:25.482Z,2.70
2023-03-28T00:15:36.314Z,2.60
2023-03-28T00:15:48.872Z,2.40
2023-03-28T00:15:59.705Z,2.70
2023-03-28T00:16:13.298Z,2.90
2023-03-28T00:16:24.091Z,3.00
2023-03-28T00:16:35.782Z,2.60
2023-03-28T00:16:48.183Z,2.50
2023-03-28T00:17:01.355Z,2.50
2023-03-28T00:17:12.112Z,2.80
2023-03-28T00:17:23.163Z,2.80
2023-03-28T00:17:34.857Z,2.90
2023-03-28T00:17:45.569Z,2.90
2023-03-28T00:17:57.382Z,2.50
2023-03-28T00:18:09.147Z,2.30
2023-03-28T00:18:19.865Z,2.70
2023-03-28T00:18:30.583Z,2.90
2023-03-28T00:18:42.303Z,3.10
2023-03-28T00:18:53.031Z,3.30
2023-03-28T00:19:03.792Z,3.10
2023-03-28T00:19:15.564Z,3.00
2023-03-28T00:19:27.993Z,2.70
2023-03-28T00:19:39.660Z,3.40
2023-03-28T00:19:52.079Z,3.20
2023-03-28T00:20:03.760Z,2.80
2023-03-28T00:20:14.492Z,2.40
2023-03-28T00:20:25.185Z,2.40
2023-03-28T00:20:36.998Z,2.40
2023-03-28T00:20:47.727Z,2.40
2023-03-28T00:20:59.409Z,2.40
2023-03-28T00:21:11.891Z,2.40
2023-03-28T00:21:24.328Z,2.90
2023-03-28T00:21:35.043Z,2.60
2023-03-28T00:21:46.767Z,2.20
2023-03-28T00:21:57.520Z,2.30
2023-03-28T00:22:09.945Z,2.70
2023-03-28T00:22:20.682Z,2.90
2023-03-28T00:22:31.390Z,2.80
2023-03-28T00:22:43.796Z,2.40
2023-03-28T00:22:57.120Z,2.30
2023-03-28T00:23:09.330Z,2.70
2023-03-28T00:23:20.023Z,2.80
2023-03-28T00:23:31.734Z,2.50
2023-03-28T00:23:42.437Z,2.30
2023-03-28T00:23:55.113Z,2.80
2023-03-28T00:24:05.816Z,2.80
2023-03-28T00:24:16.557Z,2.50
2023-03-28T00:24:27.295Z,2.60
2023-03-28T00:24:38.041Z,2.80
2023-03-28T00:24:48.765Z,3.50
2023-03-28T00:25:01.267Z,3.50
2023-03-28T00:25:11.931Z,3.50
2023-03-28T00:25:24.309Z,3.10
2023-03-28T00:25:36.526Z,3.80
2023-03-28T00:25:47.233Z,3.40
2023-03-28T00:25:59.528Z,2.70
2023-03-28T00:26:11.325Z,2.90
2023-03-28T00:26:23.795Z,2.70
2023-03-28T00:26:36.512Z,2.50
2023-03-28T00:26:47.239Z,2.30
2023-03-28T00:26:57.977Z,2.50
2023-03-28T00:27:09.681Z,4.00
2023-03-28T00:27:21.393Z,4.10
2023-03-28T00:27:33.583Z,3.50
2023-03-28T00:27:45.302Z,3.00
2023-03-28T00:27:57.555Z,3.10
2023-03-28T00:28:09.832Z,3.20
2023-03-28T00:28:20.512Z,2.70
2023-03-28T00:28:32.309Z,2.70
2023-03-28T00:28:44.080Z,2.70
2023-03-28T00:28:56.532Z,2.90
2023-03-28T00:29:07.235Z,3.50
2023-03-28T00:29:19.910Z,3.80
2023-03-28T00:29:32.341Z,3.30
2023-03-28T00:29:43.080Z,2.80
2023-03-28T00:29:53.795Z,2.50
2023-03-28T00:30:06.481Z,2.30
2023-03-28T00:30:21.205Z,2.60
2023-03-28T00:30:33.660Z,3.10
2023-03-28T00:30:46.839Z,2.80
2023-03-28T00:30:58.536Z,2.70
2023-03-28T00:31:11.032Z,2.40
2023-03-28T00:31:23.479Z,2.50
2023-03-28T00:31:34.264Z,2.50
2023-03-28T00:31:46.643Z,2.50
2023-03-28T00:31:57.320Z,2.60
2023-03-28T00:32:09.756Z,2.80
2023-03-28T00:32:21.408Z,3.10
2023-03-28T00:32:33.851Z,3.00
2023-03-28T00:32:47.051Z,2.70
2023-03-28T00:32:59.588Z,3.10
2023-03-28T00:33:10.284Z,3.20
2023-03-28T00:33:21.968Z,2.80
2023-03-28T00:33:34.190Z,2.50
2023-03-28T00:33:44.967Z,2.40
2023-03-28T00:33:56.665Z,2.30
2023-03-28T00:34:07.364Z,2.40
2023-03-28T00:34:19.555Z,3.00
2023-03-28T00:34:31.474Z,3.10
2023-03-28T00:34:44.371Z,2.80
2023-03-28T00:34:56.533Z,2.70
2023-03-28T00:35:07.289Z,2.90
2023-03-28T00:35:19.705Z,3.00
2023-03-28T00:35:30.462Z,2.80
2023-03-28T00:35:41.190Z,3.10
2023-03-28T00:35:52.651Z,3.50
2023-03-28T00:36:04.437Z,3.30
2023-03-28T00:36:16.111Z,3.00
2023-03-28T00:36:26.985Z,2.70
2023-03-28T00:36:39.203Z,2.80
2023-03-28T00:36:50.004Z,3.10
2023-03-28T00:37:02.454Z,3.30
2023-03-28T00:37:15.598Z,2.80
2023-03-28T00:37:27.288Z,3.10
2023-03-28T00:37:39.253Z,3.00
2023-03-28T00:37:51.929Z,3.10
2023-03-28T00:38:04.421Z,3.10
2023-03-28T00:38:16.902Z,2.50
2023-03-28T00:38:27.673Z,2.60
2023-03-28T00:38:38.434Z,2.80
2023-03-28T00:38:50.870Z,3.10
2023-03-28T00:39:03.581Z,2.60
2023-03-28T00:39:14.359Z,2.60
2023-03-28T00:39:25.103Z,2.30
2023-03-28T00:39:35.830Z,2.60
2023-03-28T00:39:46.555Z,2.60
2023-03-28T00:39:57.366Z,2.80
2023-03-28T00:40:09.834Z,2.60
2023-03-28T00:40:22.272Z,2.80
2023-03-28T00:40:32.986Z,3.20
2023-03-28T00:40:45.774Z,2.90
2023-03-28T00:40:56.537Z,2.90
2023-03-28T00:41:08.957Z,2.60
2023-03-28T00:41:21.361Z,2.50
2023-03-28T00:41:32.087Z,2.70
2023-03-28T00:41:42.853Z,2.70
2023-03-28T00:41:53.599Z,3.50
2023-03-28T00:42:05.282Z,3.30
2023-03-28T00:42:15.977Z,2.90
2023-03-28T00:42:27.729Z,3.00
2023-03-28T00:42:38.438Z,2.90
2023-03-28T00:42:49.162Z,3.40
2023-03-28T00:42:59.854Z,3.00
2023-03-28T00:43:11.543Z,2.80
2023-03-28T00:43:22.237Z,3.20
2023-03-28T00:43:32.949Z,3.00
2023-03-28T00:43:45.126Z,3.00
2023-03-28T00:43:56.819Z,2.50
2023-03-28T00:44:09.731Z,2.60
2023-03-28T00:44:20.472Z,2.50
2023-03-28T00:44:31.255Z,2.50
2023-03-28T00:44:42.962Z,2.30
2023-03-28T00:44:53.806Z,2.60
2023-03-28T00:45:05.468Z,2.70
2023-03-28T00:45:17.210Z,3.10
2023-03-28T00:45:27.958Z,3.20
2023-03-28T00:45:38.746Z,3.50
2023-03-28T00:46:02.752Z,2.60
2023-03-28T00:46:09.373Z,2.30
2023-03-28T00:46:21.296Z,2.50
2023-03-28T00:46:33.012Z,3.10
2023-03-28T00:46:43.778Z,3.10
2023-03-28T00:46:54.567Z,3.10
2023-03-28T00:47:05.268Z,2.70
2023-03-28T00:47:17.652Z,2.80
2023-03-28T00:47:30.363Z,2.80
2023-03-28T00:47:41.211Z,3.20
2023-03-28T00:47:52.025Z,3.40
2023-03-28T00:48:04.467Z,3.20
2023-03-28T00:48:16.683Z,3.50
2023-03-28T00:48:29.618Z,3.40
2023-03-28T00:48:41.335Z,3.00
2023-03-28T00:48:53.057Z,2.70
2023-03-28T00:49:03.825Z,2.50
2023-03-28T00:49:14.564Z,2.40
2023-03-28T00:49:27.468Z,2.40
2023-03-28T00:49:40.727Z,2.70
2023-03-28T00:49:52.391Z,3.00
2023-03-28T00:50:04.078Z,2.50
2023-03-28T00:50:17.795Z,2.50
2023-03-28T00:50:29.529Z,2.80
2023-03-28T00:50:40.281Z,3.10
2023-03-28T00:50:51.086Z,2.90
2023-03-28T00:51:01.800Z,3.40
2023-03-28T00:51:12.565Z,3.30
2023-03-28T00:51:23.308Z,3.10
2023-03-28T00:51:35.749Z,2.60
2023-03-28T00:51:48.660Z,2.60
2023-03-28T00:52:01.077Z,2.60
2023-03-28T00:52:12.775Z,2.90
2023-03-28T00:52:23.521Z,2.90
2023-03-28T00:52:34.220Z,3.00
2023-03-28T00:52:44.920Z,2.80
2023-03-28T00:52:56.637Z,2.40
2023-03-28T00:53:09.116Z,2.40
2023-03-28T00:53:22.992Z,2.90
2023-03-28T00:53:35.156Z,3.30
2023-03-28T00:53:47.353Z,3.00
2023-03-28T00:53:58.122Z,2.60
2023-03-28T00:54:10.483Z,2.70
2023-03-28T00:54:21.171Z,2.90
2023-03-28T00:54:32.861Z,3.10
2023-03-28T00:54:43.592Z,3.00
2023-03-28T00:54:55.499Z,2.90
2023-03-28T00:55:07.986Z,3.10
2023-03-28T00:55:19.725Z,3.70
2023-03-28T00:55:31.488Z,4.00
2023-03-28T00:55:43.921Z,3.10
2023-03-28T00:55:55.594Z,2.90
2023-03-28T00:56:08.288Z,3.00
2023-03-28T00:56:20.710Z,3.00
2023-03-28T00:56:31.400Z,3.00
2023-03-28T00:56:43.089Z,2.80
2023-03-28T00:56:55.329Z,2.70
2023-03-28T00:57:07.100Z,2.60
2023-03-28T00:57:18.871Z,2.90
2023-03-28T00:57:31.160Z,3.00
2023-03-28T00:57:44.150Z,2.90
2023-03-28T00:57:54.880Z,3.20
2023-03-28T00:58:07.797Z,3.50
2023-03-28T00:58:19.520Z,3.50
2023-03-28T00:58:31.277Z,3.20
2023-03-28T00:58:43.013Z,2.70
2023-03-28T00:58:54.737Z,2.50
2023-03-28T00:59:05.452Z,2.70
2023-03-28T00:59:17.142Z,3.10
2023-03-28T00:59:27.855Z,3.60
2023-03-28T00:59:40.252Z,3.70
2023-03-28T00:59:51.964Z,3.90
2023-03-28T01:00:02.665Z,3.60
2023-03-28T01:00:13.435Z,4.40
2023-03-28T01:00:24.117Z,3.90
2023-03-28T01:00:34.964Z,3.70
2023-03-28T01:00:46.708Z,2.80
2023-03-28T01:00:59.129Z,3.10
2023-03-28T01:01:11.533Z,2.90
2023-03-28T01:01:22.247Z,3.00
2023-03-28T01:01:34.872Z,2.90
2023-03-28T01:01:48.025Z,3.00
2023-03-28T01:01:59.756Z,3.20
2023-03-28T01:02:11.992Z,3.10
2023-03-28T01:02:22.754Z,2.80
2023-03-28T01:02:34.493Z,3.10
2023-03-28T01:02:45.324Z,2.70
2023-03-28T01:02:56.093Z,2.90
2023-03-28T01:03:06.998Z,2.80
2023-03-28T01:03:17.791Z,3.00
2023-03-28T01:03:30.041Z,2.90
2023-03-28T01:03:41.030Z,3.10
2023-03-28T01:03:52.869Z,3.10
2023-03-28T01:04:03.562Z,4.10
2023-03-28T01:04:14.262Z,3.90
2023-03-28T01:04:27.522Z,3.50
2023-03-28T01:04:38.200Z,3.00
2023-03-28T01:04:49.865Z,3.60
2023-03-28T01:05:00.856Z,3.40
2023-03-28T01:05:11.583Z,3.00
2023-03-28T01:05:23.748Z,2.70
2023-03-28T01:05:36.148Z,2.70
2023-03-28T01:05:47.947Z,3.00
2023-03-28T01:06:00.544Z,3.50
2023-03-28T01:06:12.449Z,3.50
2023-03-28T01:06:24.105Z,3.20
2023-03-28T01:06:34.839Z,2.50
2023-03-28T01:06:45.528Z,2.50
2023-03-28T01:06:56.229Z,2.40
2023-03-28T01:07:08.410Z,3.00
2023-03-28T01:07:19.112Z,2.80
2023-03-28T01:07:29.872Z,2.80
2023-03-28T01:07:40.605Z,2.70
2023-03-28T01:07:51.327Z,2.50
2023-03-28T01:08:03.513Z,2.30
2023-03-28T01:08:15.967Z,2.40
2023-03-28T01:08:27.744Z,2.60
2023-03-28T01:08:40.634Z,2.80
2023-03-28T01:08:52.373Z,2.80
2023-03-28T01:09:04.602Z,2.80
2023-03-28T01:09:16.194Z,3.00
2023-03-28T01:09:27.986Z,3.00
2023-03-28T01:09:38.661Z,3.20
2023-03-28T01:09:49.415Z,3.60
2023-03-28T01:10:01.174Z,4.00
2023-03-28T01:10:11.929Z,3.30
2023-03-28T01:10:22.640Z,2.80
2023-03-28T01:10:34.311Z,2.30
2023-03-28T01:10:44.996Z,2.50
2023-03-28T01:10:55.741Z,2.80
2023-03-28T01:11:06.457Z,3.00
2023-03-28T01:11:18.230Z,2.80
2023-03-28T01:11:30.650Z,3.00
2023-03-28T01:11:41.329Z,2.70
2023-03-28T01:11:52.038Z,2.60
2023-03-28T01:12:02.880Z,2.60
2023-03-28T01:12:13.586Z,3.30
2023-03-28T01:12:26.592Z,3.50
2023-03-28T01:12:37.329Z,3.10
2023-03-28T01:12:50.011Z,2.80
2023-03-28T01:13:00.820Z,2.80
2023-03-28T01:13:14.848Z,3.10
2023-03-28T01:13:26.770Z,3.50
2023-03-28T01:13:37.549Z,3.00
2023-03-28T01:13:50.866Z,2.50
2023-03-28T01:14:04.610Z,2.20
2023-03-28T01:14:16.353Z,2.20
2023-03-28T01:14:28.889Z,3.00
2023-03-28T01:14:40.592Z,3.10
2023-03-28T01:14:53.877Z,3.00
2023-03-28T01:15:04.751Z,3.00
2023-03-28T01:15:17.179Z,3.20
2023-03-28T01:15:27.870Z,3.50
2023-03-28T01:15:40.244Z,3.10
2023-03-28T01:15:52.990Z,2.90
2023-03-28T01:16:04.985Z,3.10
2023-03-28T01:16:17.549Z,3.60
2023-03-28T01:16:28.321Z,3.40
2023-03-28T01:16:40.564Z,3.10
2023-03-28T01:16:52.272Z,3.20
2023-03-28T01:17:02.992Z,3.70
2023-03-28T01:17:14.680Z,3.10
2023-03-28T01:17:25.461Z,2.70
2023-03-28T01:17:37.147Z,3.30
2023-03-28T01:17:47.849Z,3.50
2023-03-28T01:18:00.285Z,3.50
2023-03-28T01:18:11.948Z,2.70
2023-03-28T01:18:25.132Z,2.50
2023-03-28T01:18:37.813Z,3.00
2023-03-28T01:18:48.556Z,2.90
2023-03-28T01:18:59.259Z,2.80
2023-03-28T01:19:11.469Z,2.50
2023-03-28T01:19:24.622Z,2.50
2023-03-28T01:19:37.830Z,3.00
2023-03-28T01:19:50.235Z,3.70
2023-03-28T01:20:02.402Z,3.20
2023-03-28T01:20:14.081Z,2.40
2023-03-28T01:20:26.024Z,3.00
2023-03-28T01:20:36.770Z,2.90
2023-03-28T01:20:48.975Z,3.40
2023-03-28T01:21:02.178Z,3.40
2023-03-28T01:21:14.885Z,3.50
2023-03-28T01:21:25.616Z,3.20
2023-03-28T01:21:37.342Z,3.20
2023-03-28T01:21:50.230Z,3.10
2023-03-28T01:22:01.928Z,2.90
2023-03-28T01:22:14.419Z,2.70
2023-03-28T01:22:27.599Z,3.00
2023-03-28T01:22:38.352Z,3.20
2023-03-28T01:22:56.925Z,3.40
2023-03-28T01:23:07.393Z,3.50
2023-03-28T01:23:19.073Z,3.50
2023-03-28T01:23:30.786Z,3.70
2023-03-28T01:23:42.529Z,3.90
2023-03-28T01:23:54.284Z,3.50
2023-03-28T01:24:12.584Z,3.20
2023-03-28T01:24:24.431Z,2.70
2023-03-28T01:24:36.853Z,2.50
2023-03-28T01:24:47.600Z,2.50
2023-03-28T01:24:59.450Z,2.90
2023-03-28T01:25:11.652Z,3.10
2023-03-28T01:25:22.351Z,2.70
2023-03-28T01:25:34.101Z,2.80
2023-03-28T01:25:46.493Z,2.60
2023-03-28T01:25:57.326Z,2.80
2023-03-28T01:26:09.239Z,3.00
2023-03-28T01:26:21.656Z,3.20
2023-03-28T01:26:32.447Z,2.70
2023-03-28T01:26:43.148Z,2.70
2023-03-28T01:26:55.126Z,2.90
2023-03-28T01:27:07.549Z,3.00
2023-03-28T01:27:18.258Z,3.20
2023-03-28T01:27:28.983Z,3.50
2023-03-28T01:27:39.689Z,3.30
2023-03-28T01:27:51.376Z,3.40
2023-03-28T01:28:03.549Z,3.30
2023-03-28T01:28:14.269Z,3.40
2023-03-28T01:28:25.992Z,3.30
2023-03-28T01:28:36.701Z,3.00
2023-03-28T01:28:49.125Z,3.40
2023-03-28T01:29:01.054Z,3.60
2023-03-28T01:29:14.232Z,3.50
2023-03-28T01:29:26.409Z,3.40
2023-03-28T01:29:38.129Z,3.00
2023-03-28T01:29:48.882Z,2.80
2023-03-28T01:29:59.688Z,2.90
2023-03-28T01:30:10.438Z,2.80
2023-03-28T01:30:22.108Z,3.20
2023-03-28T01:30:32.862Z,3.20
2023-03-28T01:30:44.537Z,3.20
2023-03-28T01:30:56.721Z,3.40
2023-03-28T01:31:08.971Z,2.90
2023-03-28T01:31:20.688Z,2.90
2023-03-28T01:31:31.478Z,3.40
2023-03-28T01:31:42.272Z,3.30
2023-03-28T01:31:53.005Z,3.30
2023-03-28T01:32:04.763Z,3.00
2023-03-28T01:32:16.495Z,3.40
2023-03-28T01:32:27.238Z,3.60
2023-03-28T01:32:37.922Z,3.50
2023-03-28T01:32:48.701Z,3.30
2023-03-28T01:33:00.432Z,4.00
2023-03-28T01:33:11.229Z,3.70
2023-03-28T01:33:23.649Z,4.20
2023-03-28T01:33:36.059Z,3.40
2023-03-28T01:33:46.823Z,2.80
2023-03-28T01:33:57.542Z,2.50
2023-03-28T01:34:09.253Z,2.40
2023-03-28T01:34:20.970Z,2.80
2023-03-28T01:34:31.692Z,2.60
2023-03-28T01:34:44.685Z,2.50
2023-03-28T01:34:55.420Z,3.00
2023-03-28T01:35:07.107Z,3.30
2023-03-28T01:35:17.948Z,3.30
2023-03-28T01:35:28.853Z,3.00
2023-03-28T01:35:40.844Z,2.80
2023-03-28T01:35:51.597Z,2.90
2023-03-28T01:36:03.889Z,3.50
2023-03-28T01:36:33.972Z,3.00
2023-03-28T01:36:34.312Z,3.50
2023-03-28T01:36:46.139Z,3.00
2023-03-28T01:36:56.862Z,2.90
2023-03-28T01:37:09.031Z,3.20
2023-03-28T01:37:19.780Z,3.50
2023-03-28T01:37:32.057Z,3.60
2023-03-28T01:37:42.768Z,2.90
2023-03-28T01:37:55.165Z,2.70
2023-03-28T01:38:06.835Z,3.00
2023-03-28T01:38:17.574Z,3.00
2023-03-28T01:38:28.287Z,3.30
2023-03-28T01:38:41.554Z,3.10
2023-03-28T01:38:53.249Z,3.30
2023-03-28T01:39:03.948Z,2.70
2023-03-28T01:39:14.664Z,2.60
2023-03-28T01:39:27.833Z,2.30
2023-03-28T01:39:40.004Z,2.10
2023-03-28T01:39:52.194Z,2.20
2023-03-28T01:40:05.396Z,2.70
2023-03-28T01:40:16.117Z,3.40
2023-03-28T01:40:28.533Z,3.40
2023-03-28T01:40:39.310Z,3.50
2023-03-28T01:40:51.011Z,3.10
2023-03-28T01:41:01.708Z,3.40
2023-03-28T01:41:12.403Z,3.10
2023-03-28T01:41:23.143Z,3.30
2023-03-28T01:41:35.585Z,3.30
2023-03-28T01:41:46.319Z,2.90
2023-03-28T01:41:58.053Z,3.40
2023-03-28T01:42:10.434Z,3.20
2023-03-28T01:42:21.150Z,3.00
2023-03-28T01:42:32.835Z,3.60
2023-03-28T01:42:46.022Z,3.20
2023-03-28T01:42:59.729Z,3.20
2023-03-28T01:43:12.180Z,3.10
2023-03-28T01:43:24.616Z,3.00
2023-03-28T01:43:37.045Z,3.00
2023-03-28T01:43:48.730Z,2.70
2023-03-28T01:44:02.412Z,3.20
2023-03-28T01:44:13.105Z,3.70
2023-03-28T01:44:23.794Z,3.50
2023-03-28T01:44:36.724Z,2.90
2023-03-28T01:44:47.444Z,2.90
2023-03-28T01:45:00.628Z,2.50
2023-03-28T01:45:13.421Z,2.50
2023-03-28T01:45:25.887Z,2.30
2023-03-28T01:45:36.708Z,2.40
2023-03-28T01:45:50.443Z,2.80
2023-03-28T01:46:02.509Z,2.70
2023-03-28T01:46:14.674Z,2.80
2023-03-28T01:46:27.211Z,2.60
2023-03-28T01:46:37.924Z,2.80
2023-03-28T01:46:50.362Z,3.60
2023-03-28T01:47:01.084Z,3.50
2023-03-28T01:47:11.771Z,3.20
2023-03-28T01:47:22.542Z,3.00
2023-03-28T01:47:34.225Z,3.30
2023-03-28T01:47:46.810Z,3.70
2023-03-28T01:47:59.194Z,3.30
2023-03-28T01:48:11.678Z,2.70
2023-03-28T01:48:23.441Z,2.60
2023-03-28T01:48:34.197Z,2.80
2023-03-28T01:48:44.898Z,3.10
2023-03-28T01:48:55.628Z,3.20
2023-03-28T01:49:08.804Z,3.70
2023-03-28T01:49:22.474Z,3.20
2023-03-28T01:49:33.223Z,3.30
2023-03-28T01:49:43.961Z,2.70
2023-03-28T01:49:55.882Z,3.60
2023-03-28T01:50:08.096Z,3.10
2023-03-28T01:50:21.011Z,3.10
2023-03-28T01:50:32.724Z,2.50
2023-03-28T01:50:43.464Z,2.70
2023-03-28T01:50:54.171Z,2.90
2023-03-28T01:51:04.887Z,2.80
2023-03-28T01:51:15.589Z,2.70
2023-03-28T01:51:26.294Z,2.60
2023-03-28T01:51:37.984Z,2.50
2023-03-28T01:51:50.187Z,2.50
2023-03-28T01:52:01.842Z,2.70
2023-03-28T01:52:14.774Z,2.70
2023-03-28T01:52:26.513Z,2.70
2023-03-28T01:52:37.229Z,3.10
2023-03-28T01:52:49.391Z,3.20
2023-03-28T01:53:01.745Z,3.40
2023-03-28T01:53:12.492Z,3.50
2023-03-28T01:53:23.221Z,3.40
2023-03-28T01:53:36.942Z,2.70
2023-03-28T01:53:47.650Z,2.40
2023-03-28T01:53:58.415Z,2.60
2023-03-28T01:54:10.171Z,2.70
2023-03-28T01:54:20.941Z,2.80
2023-03-28T01:54:33.443Z,2.70
2023-03-28T01:54:45.141Z,2.70
2023-03-28T01:54:56.894Z,3.60
2023-03-28T01:55:08.553Z,4.00
2023-03-28T01:55:19.236Z,3.60
2023-03-28T01:55:31.942Z,2.50
2023-03-28T01:55:49.279Z,3.00
2023-03-28T01:56:00.111Z,2.90
2023-03-28T01:56:10.891Z,3.00
2023-03-28T01:56:21.659Z,3.00
2023-03-28T01:56:32.431Z,3.00
2023-03-28T01:56:44.380Z,3.00
2023-03-28T01:56:56.680Z,3.40
2023-03-28T01:57:07.470Z,4.00
2023-03-28T01:57:18.260Z,4.10
2023-03-28T01:57:29.033Z,3.40
2023-03-28T01:57:41.557Z,2.40
2023-03-28T01:57:52.310Z,2.60
2023-03-28T01:58:02.996Z,2.70
2023-03-28T01:58:15.469Z,2.90
2023-03-28T01:58:26.220Z,2.70
2023-03-28T01:58:38.158Z,3.00
2023-03-28T01:58:48.924Z,3.00
2023-03-28T01:59:00.662Z,3.00
2023-03-28T01:59:12.415Z,3.90
2023-03-28T01:59:25.574Z,3.50
2023-03-28T01:59:36.265Z,2.80
2023-03-28T01:59:48.005Z,3.10
2023-03-28T01:59:58.713Z,2.90
2023-03-28T02:00:09.454Z,2.90
2023-03-28T02:00:22.407Z,2.50
2023-03-28T02:00:33.131Z,2.70
2023-03-28T02:00:46.928Z,2.90
2023-03-28T02:00:59.386Z,3.10
2023-03-28T02:01:10.133Z,3.10
2023-03-28T02:01:20.928Z,2.50
2023-03-28T02:01:32.719Z,2.60
2023-03-28T02:01:45.115Z,2.50
2023-03-28T02:01:58.317Z,2.70
2023-03-28T02:02:10.763Z,3.20
2023-03-28T02:02:21.551Z,3.00
2023-03-28T02:02:34.565Z,2.50
2023-03-28T02:02:46.341Z,2.70
2023-03-28T02:02:57.281Z,2.90
2023-03-28T02:03:09.825Z,2.70
2023-03-28T02:03:22.240Z,2.80
2023-03-28T02:03:34.046Z,2.80
2023-03-28T02:03:44.746Z,3.20
2023-03-28T02:03:56.521Z,3.20
2023-03-28T02:04:20.654Z,3.20
2023-03-28T02:04:24.612Z,2.80
2023-03-28T02:04:35.359Z,2.80
2023-03-28T02:04:47.070Z,3.00
2023-03-28T02:04:58.736Z,2.90
2023-03-28T02:05:09.450Z,2.40
2023-03-28T02:05:20.235Z,2.20
2023-03-28T02:05:30.967Z,2.50
2023-03-28T02:05:43.140Z,3.10
2023-03-28T02:05:54.837Z,3.30
2023-03-28T02:06:05.599Z,4.10
2023-03-28T02:06:17.277Z,3.90
2023-03-28T02:06:29.427Z,3.60
2023-03-28T02:06:40.115Z,3.30
2023-03-28T02:06:51.867Z,3.10
2023-03-28T02:07:06.007Z,3.20
2023-03-28T02:07:16.911Z,3.00
2023-03-28T02:07:27.627Z,3.20
2023-03-28T02:07:40.053Z,2.60
2023-03-28T02:07:51.775Z,3.10
2023-03-28T02:08:03.492Z,3.40
2023-03-28T02:08:15.142Z,3.60
2023-03-28T02:08:27.582Z,3.40
2023-03-28T02:08:38.263Z,3.40
2023-03-28T02:08:49.008Z,3.70
2023-03-28T02:08:59.762Z,3.30
2023-03-28T02:09:11.493Z,3.20
2023-03-28T02:09:24.799Z,2.80
2023-03-28T02:09:37.915Z,2.80
2023-03-28T02:09:49.831Z,2.80
2023-03-28T02:10:02.277Z,2.60
2023-03-28T02:10:12.974Z,2.60
2023-03-28T02:10:25.385Z,2.50
2023-03-28T02:10:37.744Z,2.50
2023-03-28T02:10:49.458Z,3.00
2023-03-28T02:11:01.146Z,3.20
2023-03-28T02:11:11.867Z,2.80
2023-03-28T02:11:25.305Z,2.70
2023-03-28T02:11:36.968Z,2.90
2023-03-28T02:11:48.639Z,3.00
2023-03-28T02:12:00.868Z,3.20
2023-03-28T02:12:11.586Z,2.70
2023-03-28T02:12:22.337Z,2.90
2023-03-28T02:12:34.010Z,3.00
2023-03-28T02:12:44.753Z,3.10
2023-03-28T02:12:57.448Z,3.20
2023-03-28T02:13:08.190Z,3.10
2023-03-28T02:13:20.741Z,3.20
2023-03-28T02:13:33.170Z,3.20
2023-03-28T02:13:44.888Z,3.30
2023-03-28T02:13:57.273Z,3.10
2023-03-28T02:14:07.969Z,3.20
2023-03-28T02:14:20.404Z,3.20
2023-03-28T02:14:31.174Z,3.30
2023-03-28T02:14:41.901Z,3.10
2023-03-28T02:14:55.048Z,3.00
2023-03-28T02:15:08.231Z,2.80
2023-03-28T02:15:19.971Z,2.80
2023-03-28T02:15:31.647Z,2.70
2023-03-28T02:15:43.332Z,2.80
2023-03-28T02:15:54.121Z,2.70
2023-03-28T02:16:08.937Z,2.70
2023-03-28T02:16:21.375Z,3.10
2023-03-28T02:16:33.057Z,3.90
2023-03-28T02:16:43.795Z,3.30
2023-03-28T02:16:55.501Z,3.60
2023-03-28T02:17:06.212Z,3.10
2023-03-28T02:17:18.714Z,3.00
2023-03-28T02:17:31.944Z,2.90
2023-03-28T02:17:43.626Z,2.70
2023-03-28T02:17:56.268Z,2.80
2023-03-28T02:18:07.932Z,4.10
2023-03-28T02:18:18.641Z,4.40
2023-03-28T02:18:29.415Z,4.10
2023-03-28T02:18:41.827Z,3.30
2023-03-28T02:18:52.569Z,2.80
2023-03-28T02:19:03.238Z,3.40
2023-03-28T02:19:13.988Z,3.50
2023-03-28T02:19:25.676Z,3.60
2023-03-28T02:19:37.864Z,3.30
2023-03-28T02:19:48.572Z,3.20
2023-03-28T02:20:00.251Z,3.40
2023-03-28T02:20:12.139Z,3.30
2023-03-28T02:20:22.849Z,3.10
2023-03-28T02:20:35.294Z,2.80
2023-03-28T02:20:47.962Z,2.80
2023-03-28T02:21:00.381Z,2.80
2023-03-28T02:21:13.547Z,3.40
2023-03-28T02:21:25.953Z,3.50
2023-03-28T02:21:37.661Z,3.20
2023-03-28T02:21:48.335Z,3.00
2023-03-28T02:22:00.062Z,3.30
2023-03-28T02:22:11.790Z,3.10
2023-03-28T02:22:22.518Z,3.70
2023-03-28T02:22:33.293Z,3.70
2023-03-28T02:22:45.686Z,3.40
2023-03-28T02:22:57.405Z,2.60
2023-03-28T02:23:08.132Z,3.30
2023-03-28T02:23:19.856Z,3.50
2023-03-28T02:23:32.563Z,3.20
2023-03-28T02:23:43.286Z,2.80
2023-03-28T02:23:53.986Z,2.80
2023-03-28T02:24:06.700Z,2.90
2023-03-28T02:24:17.493Z,3.20
2023-03-28T02:24:29.906Z,3.30
2023-03-28T02:24:42.325Z,3.30
2023-03-28T02:24:54.590Z,4.10
2023-03-28T02:25:07.026Z,4.20
2023-03-28T02:25:19.575Z,3.50
2023-03-28T02:25:31.337Z,3.20
2023-03-28T02:25:44.512Z,3.00
2023-03-28T02:25:56.269Z,3.30
2023-03-28T02:26:07.020Z,3.70
2023-03-28T02:26:20.436Z,3.00
2023-03-28T02:26:32.184Z,3.20
2023-03-28T02:26:42.889Z,3.60
2023-03-28T02:26:59.955Z,3.40
2023-03-28T02:27:10.730Z,3.10
2023-03-28T02:27:23.136Z,2.80
2023-03-28T02:27:33.852Z,3.00
2023-03-28T02:27:44.567Z,3.20
2023-03-28T02:27:56.272Z,3.50
2023-03-28T02:28:07.006Z,3.90
2023-03-28T02:28:17.788Z,3.50
2023-03-28T02:28:29.688Z,3.70
2023-03-28T02:28:41.404Z,3.00
2023-03-28T02:28:53.101Z,2.60
2023-03-28T02:29:03.887Z,2.80
2023-03-28T02:29:14.635Z,3.10
2023-03-28T02:29:26.300Z,2.80
2023-03-28T02:29:37.004Z,2.60
2023-03-28T02:29:49.440Z,2.60
2023-03-28T02:30:01.875Z,2.60
2023-03-28T02:30:12.615Z,2.50
2023-03-28T02:30:24.794Z,2.80
2023-03-28T02:30:36.548Z,2.90
2023-03-28T02:30:48.747Z,2.70
2023-03-28T02:31:00.417Z,3.00
2023-03-28T02:31:12.173Z,3.00
2023-03-28T02:31:22.862Z,2.70
2023-03-28T02:31:35.084Z,3.00
2023-03-28T02:31:46.781Z,3.50
2023-03-28T02:31:57.516Z,4.10
2023-03-28T02:32:10.228Z,4.30
2023-03-28T02:32:21.165Z,3.70
2023-03-28T02:32:34.923Z,3.10
2023-03-28T02:32:45.730Z,3.00
2023-03-28T02:32:56.443Z,3.00
2023-03-28T02:33:08.237Z,3.20
2023-03-28T02:33:22.100Z,3.00
2023-03-28T02:33:34.057Z,3.00
2023-03-28T02:33:45.758Z,2.90
2023-03-28T02:33:57.422Z,3.10
2023-03-28T02:34:09.875Z,3.60
2023-03-28T02:34:20.676Z,3.20
2023-03-28T02:34:32.928Z,2.90
2023-03-28T02:34:43.620Z,3.40
2023-03-28T02:34:54.352Z,3.80
2023-03-28T02:35:06.808Z,3.10
2023-03-28T02:35:18.340Z,2.90
2023-03-28T02:35:30.013Z,2.90
2023-03-28T02:35:43.241Z,3.10
2023-03-28T02:35:54.934Z,3.50